createdAt,value
2023-05-20T00:01:41.678Z,97167.13
2023-05-20T00:04:09.518Z,97164.84
2023-05-20T00:06:38.555Z,97170.22
2023-05-20T00:09:06.170Z,97172.91
2023-05-20T00:11:34.001Z,97171.94
2023-05-20T00:14:01.740Z,97163.75
2023-05-20T00:16:29.451Z,97160.38
2023-05-20T00:18:58.533Z,97163.59
2023-05-20T00:21:34.171Z,97163.91
2023-05-20T00:24:03.321Z,97164.44
2023-05-20T00:26:31.156Z,97163.13
2023-05-20T00:28:59.146Z,97168.09
2023-05-20T00:31:27.282Z,97177.44
2023-05-20T00:33:55.233Z,97165.09
2023-05-20T00:36:23.252Z,97179.81
2023-05-20T00:38:51.076Z,97175.44
2023-05-20T00:41:30.137Z,97166.69
2023-05-20T00:43:59.287Z,97162.59
2023-05-20T00:46:29.297Z,97159.91
2023-05-20T00:49:00.391Z,97152.63
2023-05-20T00:51:28.516Z,97142.19
2023-05-20T00:53:59.304Z,97141.03
2023-05-20T00:56:28.864Z,97131.22
2023-05-20T00:58:58.142Z,97138.28
2023-05-20T01:01:25.779Z,97130.09
2023-05-20T01:03:54.840Z,97134.91
2023-05-20T01:06:22.748Z,97137.34
2023-05-20T01:08:50.547Z,97135.28
2023-05-20T01:11:26.512Z,97128.84
2023-05-20T01:14:03.580Z,97118.97
2023-05-20T01:16:33.408Z,97119.84
2023-05-20T01:19:04.291Z,97122.66
2023-05-20T01:21:33.916Z,97118.41
2023-05-20T01:24:04.199Z,97114.91
2023-05-20T01:26:33.348Z,97128.91
2023-05-20T01:29:01.123Z,97134.84
2023-05-20T01:31:39.509Z,97136.69
2023-05-20T01:34:07.893Z,97137.41
2023-05-20T01:36:37.336Z,97136.38
2023-05-20T01:39:07.360Z,97129.72
2023-05-20T01:41:37.399Z,97132.19
2023-05-20T01:44:05.437Z,97123.03
2023-05-20T01:46:33.679Z,97135.78
2023-05-20T01:49:04.347Z,97133.22
2023-05-20T01:51:32.297Z,97137.75
2023-05-20T01:54:02.283Z,97141.44
2023-05-20T01:56:31.497Z,97137.28
2023-05-20T01:58:59.195Z,97138.81
2023-05-20T02:01:26.831Z,97141.50
2023-05-20T02:03:54.470Z,97141.69
2023-05-20T02:06:22.184Z,97127.44
2023-05-20T02:08:49.932Z,97126.72
2023-05-20T02:11:17.707Z,97128.53
2023-05-20T02:13:46.704Z,97135.78
2023-05-20T02:16:14.581Z,97130.03
2023-05-20T02:18:42.486Z,97124.69
2023-05-20T02:21:11.527Z,97126.97
2023-05-20T02:23:39.392Z,97119.31
2023-05-20T02:26:07.122Z,97113.22
2023-05-20T02:28:34.796Z,97110.53
2023-05-20T02:31:03.885Z,97109.38
2023-05-20T02:33:31.524Z,97112.06
2023-05-20T02:35:59.238Z,97108.63
2023-05-20T02:38:27.046Z,97114.72
2023-05-20T02:40:55.899Z,97111.28
2023-05-20T02:43:23.504Z,97111.22
2023-05-20T02:45:51.096Z,97104.88
2023-05-20T02:48:20.050Z,97107.50
2023-05-20T02:50:48.150Z,97113.78
2023-05-20T02:53:15.777Z,97107.06
2023-05-20T02:55:45.641Z,97112.28
2023-05-20T02:58:14.441Z,97108.00
2023-05-20T03:00:42.077Z,97112.53
2023-05-20T03:03:10.499Z,97113.25
2023-05-20T03:05:39.603Z,97110.00
2023-05-20T03:08:09.707Z,97107.25
2023-05-20T03:10:37.559Z,97101.06
2023-05-20T03:13:06.129Z,97100.41
2023-05-20T03:15:34.515Z,97096.75
2023-05-20T03:18:02.544Z,97097.28
2023-05-20T03:20:31.205Z,97091.16
2023-05-20T03:23:00.261Z,97098.41
2023-05-20T03:25:29.085Z,97099.53
2023-05-20T03:27:57.146Z,97096.13
2023-05-20T03:30:24.821Z,97101.34
2023-05-20T03:32:53.001Z,97104.25
2023-05-20T03:35:20.686Z,97094.09
2023-05-20T03:37:49.570Z,97090.19
2023-05-20T03:40:19.095Z,97098.44
2023-05-20T03:42:46.770Z,97099.34
2023-05-20T03:45:14.431Z,97094.28
2023-05-20T03:47:42.170Z,97100.78
2023-05-20T03:50:10.655Z,97099.00
2023-05-20T03:52:38.478Z,97108.56
2023-05-20T03:55:07.115Z,97098.38
2023-05-20T03:57:36.202Z,97093.31
2023-05-20T04:00:04.456Z,97099.06
2023-05-20T04:02:32.272Z,97090.63
2023-05-20T04:04:59.979Z,97085.72
2023-05-20T04:07:27.913Z,97086.91
2023-05-20T04:09:55.535Z,97091.44
2023-05-20T04:12:23.137Z,97081.38
2023-05-20T04:14:52.139Z,97086.94
2023-05-20T04:17:19.783Z,97083.78
2023-05-20T04:19:47.407Z,97092.25
2023-05-20T04:22:14.969Z,97085.41
2023-05-20T04:24:42.819Z,97086.50
2023-05-20T04:27:10.453Z,97097.69
2023-05-20T04:29:38.343Z,97100.50
2023-05-20T04:32:07.836Z,97102.50
2023-05-20T04:34:35.549Z,97100.94
2023-05-20T04:37:03.388Z,97096.69
2023-05-20T04:39:34.250Z,97091.88
2023-05-20T04:42:02.236Z,97100.50
2023-05-20T04:44:29.830Z,97101.63
2023-05-20T04:46:57.587Z,97107.78
2023-05-20T04:49:27.096Z,97109.31
2023-05-20T04:51:55.068Z,97107.13
2023-05-20T04:54:22.765Z,97099.13
2023-05-20T04:56:50.541Z,97095.06
2023-05-20T04:59:18.158Z,97098.59
2023-05-20T05:01:45.879Z,97104.72
2023-05-20T05:04:13.655Z,97101.31
2023-05-20T05:06:43.958Z,97096.84
2023-05-20T05:09:12.605Z,97098.38
2023-05-20T05:11:40.573Z,97092.50
2023-05-20T05:14:08.797Z,97097.63
2023-05-20T05:16:36.489Z,97093.94
2023-05-20T05:19:04.396Z,97090.31
2023-05-20T05:21:32.065Z,97086.69
2023-05-20T05:24:01.164Z,97089.59
2023-05-20T05:26:29.213Z,97090.50
2023-05-20T05:28:56.819Z,97082.56
2023-05-20T05:31:24.681Z,97089.00
2023-05-20T05:33:52.333Z,97081.41
2023-05-20T05:36:20.001Z,97078.31
2023-05-20T05:38:48.697Z,97075.81
2023-05-20T05:41:18.355Z,97084.72
2023-05-20T05:43:46.022Z,97086.88
2023-05-20T05:46:13.806Z,97083.75
2023-05-20T05:48:41.466Z,97072.56
2023-05-20T05:51:09.535Z,97070.91
2023-05-20T05:53:38.134Z,97065.00
2023-05-20T05:56:07.002Z,97054.00
2023-05-20T05:58:37.453Z,97057.84
2023-05-20T06:01:05.277Z,97056.28
2023-05-20T06:03:33.162Z,97058.31
2023-05-20T06:06:01.058Z,97065.19
2023-05-20T06:08:28.720Z,97065.16
2023-05-20T06:10:56.609Z,97061.69
2023-05-20T06:13:24.552Z,97068.22
2023-05-20T06:15:53.789Z,97060.28
2023-05-20T06:18:21.535Z,97055.78
2023-05-20T06:20:57.372Z,97047.47
2023-05-20T06:23:25.450Z,97051.44
2023-05-20T06:25:53.350Z,97043.50
2023-05-20T06:28:21.015Z,97044.47
2023-05-20T06:30:48.752Z,97042.47
2023-05-20T06:33:17.854Z,97049.50
2023-05-20T06:35:47.202Z,97058.22
2023-05-20T06:38:14.859Z,97054.56
2023-05-20T06:40:42.622Z,97043.13
2023-05-20T06:43:10.326Z,97048.00
2023-05-20T06:45:38.206Z,97031.19
2023-05-20T06:48:07.828Z,97034.75
2023-05-20T06:50:37.182Z,97036.41
2023-05-20T06:53:05.164Z,97035.84
2023-05-20T06:55:34.163Z,97036.28
2023-05-20T06:58:02.705Z,97030.69
2023-05-20T07:00:30.546Z,97035.78
2023-05-20T07:02:58.247Z,97029.03
2023-05-20T07:05:26.046Z,97024.38
2023-05-20T07:07:56.136Z,97020.53
2023-05-20T07:10:24.237Z,97029.59
2023-05-20T07:12:51.925Z,97021.16
2023-05-20T07:15:20.615Z,97014.09
2023-05-20T07:17:48.243Z,97016.56
2023-05-20T07:20:16.467Z,97011.09
2023-05-20T07:22:44.169Z,97011.25
2023-05-20T07:25:13.295Z,97006.03
2023-05-20T07:27:42.331Z,97015.16
2023-05-20T07:30:10.535Z,97004.44
2023-05-20T07:32:38.567Z,97012.59
2023-05-20T07:35:06.894Z,97008.56
2023-05-20T07:37:34.590Z,97000.69
2023-05-20T07:40:02.345Z,97003.44
2023-05-20T07:42:31.418Z,97012.34
2023-05-20T07:45:01.353Z,97009.00
2023-05-20T07:47:29.320Z,97009.56
2023-05-20T07:49:57.113Z,97003.25
2023-05-20T07:52:25.064Z,97005.88
2023-05-20T07:54:52.693Z,97010.22
2023-05-20T07:57:20.326Z,97015.19
2023-05-20T07:59:49.415Z,97006.81
2023-05-20T08:02:17.553Z,97004.16
2023-05-20T08:04:45.240Z,96999.63
2023-05-20T08:07:13.170Z,96989.16
2023-05-20T08:09:41.119Z,97007.84
2023-05-20T08:12:09.276Z,96996.00
2023-05-20T08:14:37.053Z,96994.72
2023-05-20T08:17:06.493Z,96992.16
2023-05-20T08:19:34.426Z,96984.00
2023-05-20T08:22:02.336Z,96980.19
2023-05-20T08:24:29.929Z,96988.78
2023-05-20T08:26:57.647Z,96994.69
2023-05-20T08:29:25.378Z,96989.91
2023-05-20T08:31:54.753Z,96977.91
2023-05-20T08:34:23.910Z,96973.59
2023-05-20T08:36:51.717Z,96964.38
2023-05-20T08:39:19.618Z,96968.28
2023-05-20T08:41:47.708Z,96970.41
2023-05-20T08:44:19.061Z,96966.19
2023-05-20T08:46:48.872Z,96972.13
2023-05-20T08:49:17.253Z,96969.75
2023-05-20T08:51:46.541Z,96967.97
2023-05-20T08:54:15.361Z,96968.47
2023-05-20T08:56:44.299Z,96975.66
2023-05-20T08:59:13.106Z,96968.47
2023-05-20T09:01:43.285Z,96972.50
2023-05-20T09:04:11.255Z,96972.78
2023-05-20T09:06:47.465Z,96970.94
2023-05-20T09:09:15.582Z,96975.81
2023-05-20T09:11:43.545Z,96978.47
2023-05-20T09:14:11.219Z,96969.19
2023-05-20T09:16:40.064Z,96965.34
2023-05-20T09:19:08.330Z,96968.06
2023-05-20T09:21:36.311Z,96969.09
2023-05-20T09:24:05.743Z,96961.31
2023-05-20T09:26:33.614Z,96961.78
2023-05-20T09:29:02.535Z,96949.56
2023-05-20T09:31:32.963Z,96965.78
2023-05-20T09:34:03.595Z,96963.81
2023-05-20T09:36:35.232Z,96958.19
2023-05-20T09:39:07.941Z,96954.16
2023-05-20T09:41:42.636Z,96953.91
2023-05-20T09:44:11.933Z,96951.84
2023-05-20T09:46:41.318Z,96953.81
2023-05-20T09:49:11.453Z,96952.94
2023-05-20T09:51:41.810Z,96948.16
2023-05-20T09:54:13.030Z,96951.00
2023-05-20T09:56:41.394Z,96954.41
2023-05-20T09:59:10.501Z,96949.94
2023-05-20T10:01:38.482Z,96956.44
2023-05-20T10:04:09.180Z,96966.06
2023-05-20T10:07:08.182Z,96962.25
2023-05-20T10:09:55.774Z,96963.13
2023-05-20T10:12:33.425Z,96957.91
2023-05-20T10:15:16.661Z,96953.41
2023-05-20T10:18:01.969Z,96962.66
2023-05-20T10:20:31.684Z,96960.28
2023-05-20T10:22:59.662Z,96961.38
2023-05-20T10:25:28.896Z,96957.81
2023-05-20T10:28:09.240Z,96953.81
2023-05-20T10:30:41.557Z,96951.66
2023-05-20T10:33:18.828Z,96955.47
2023-05-20T10:35:52.900Z,96959.34
2023-05-20T10:38:21.458Z,96963.47
2023-05-20T10:40:51.428Z,96963.31
2023-05-20T10:43:27.456Z,96960.66
2023-05-20T10:45:57.128Z,96961.34
2023-05-20T10:48:27.741Z,96973.59
2023-05-20T10:50:58.958Z,96954.47
2023-05-20T10:53:34.006Z,96951.28
2023-05-20T10:56:06.703Z,96963.47
2023-05-20T10:58:40.474Z,96968.53
2023-05-20T11:01:10.749Z,96960.78
2023-05-20T11:03:40.437Z,96960.63
2023-05-20T11:06:12.213Z,96957.97
2023-05-20T11:08:40.216Z,96956.78
2023-05-20T11:11:12.366Z,96954.19
2023-05-20T11:13:42.030Z,96961.47
2023-05-20T11:16:09.887Z,96959.72
2023-05-20T11:18:37.684Z,96948.69
2023-05-20T11:21:05.414Z,96958.78
2023-05-20T11:23:33.305Z,96955.13
2023-05-20T11:26:01.422Z,96945.09
2023-05-20T11:28:30.765Z,96948.44
2023-05-20T11:30:59.950Z,96947.50
2023-05-20T11:33:27.888Z,96935.41
2023-05-20T11:35:57.118Z,96925.50
2023-05-20T11:38:24.928Z,96929.81
2023-05-20T11:40:54.844Z,96926.25
2023-05-20T11:43:24.120Z,96923.97
2023-05-20T11:45:56.690Z,96920.94
2023-05-20T11:48:24.757Z,96923.00
2023-05-20T11:50:54.768Z,96929.03
2023-05-20T11:53:24.165Z,96919.66
2023-05-20T11:55:54.909Z,96919.53
2023-05-20T11:58:25.080Z,96919.59
2023-05-20T12:00:59.565Z,96913.75
2023-05-20T12:03:30.243Z,96912.59
2023-05-20T12:06:01.407Z,96911.03
2023-05-20T12:08:29.316Z,96903.44
2023-05-20T12:10:58.373Z,96894.72
2023-05-20T12:13:27.809Z,96903.59
2023-05-20T12:15:57.041Z,96906.09
2023-05-20T12:18:24.735Z,96909.94
2023-05-20T12:20:52.781Z,96904.66
2023-05-20T12:23:20.530Z,96916.63
2023-05-20T12:25:48.185Z,96907.63
2023-05-20T12:28:15.972Z,96905.78
2023-05-20T12:30:43.878Z,96906.16
2023-05-20T12:33:15.201Z,96918.50
2023-05-20T12:35:44.021Z,96928.38
2023-05-20T12:38:12.339Z,96920.19
2023-05-20T12:40:40.057Z,96921.31
2023-05-20T12:43:07.962Z,96911.44
2023-05-20T12:45:35.603Z,96908.38
2023-05-20T12:48:04.297Z,96909.47
2023-05-20T12:50:34.003Z,96910.53
2023-05-20T12:53:01.980Z,96905.22
2023-05-20T12:55:29.607Z,96900.19
2023-05-20T12:57:57.306Z,96898.06
2023-05-20T13:00:24.993Z,96906.91
2023-05-20T13:02:52.837Z,96908.44
2023-05-20T13:05:22.199Z,96913.34
2023-05-20T13:07:51.135Z,96914.25
2023-05-20T13:10:18.899Z,96926.03
2023-05-20T13:12:46.659Z,96916.03
2023-05-20T13:15:14.990Z,96916.41
2023-05-20T13:17:42.901Z,96919.88
2023-05-20T13:20:11.807Z,96918.06
2023-05-20T13:22:39.553Z,96913.34
2023-05-20T13:25:11.588Z,96916.41
2023-05-20T13:27:39.249Z,96915.19
2023-05-20T13:30:08.494Z,96933.03
2023-05-20T13:32:36.391Z,96924.09
2023-05-20T13:35:04.697Z,96924.25
2023-05-20T13:37:32.420Z,96926.44
2023-05-20T13:40:00.156Z,96916.22
2023-05-20T13:42:29.146Z,96920.69
2023-05-20T13:44:56.830Z,96923.91
2023-05-20T13:47:24.608Z,96918.16
2023-05-20T13:49:52.357Z,96922.53
2023-05-20T13:52:20.061Z,96924.66
2023-05-20T13:54:47.771Z,96931.31
2023-05-20T13:57:15.499Z,96922.22
2023-05-20T13:59:44.549Z,96924.16
2023-05-20T14:02:12.294Z,96920.78
2023-05-20T14:04:40.063Z,96921.09
2023-05-20T14:07:09.854Z,96914.97
2023-05-20T14:09:40.296Z,96913.03
2023-05-20T14:12:08.092Z,96911.66
2023-05-20T14:14:35.928Z,96909.16
2023-05-20T14:17:05.250Z,96910.47
2023-05-20T14:19:34.620Z,96898.84
2023-05-20T14:22:02.388Z,96894.38
2023-05-20T14:24:30.067Z,96885.41
2023-05-20T14:26:57.923Z,96894.13
2023-05-20T14:29:25.793Z,96889.69
2023-05-20T14:31:53.469Z,96880.88
2023-05-20T14:34:22.594Z,96886.50
2023-05-20T14:36:50.227Z,96888.31
2023-05-20T14:39:18.007Z,96879.59
2023-05-20T14:41:45.918Z,96880.91
2023-05-20T14:44:13.566Z,96887.22
2023-05-20T14:46:41.286Z,96885.03
2023-05-20T14:49:09.028Z,96885.47
2023-05-20T14:51:37.960Z,96885.34
2023-05-20T14:54:05.544Z,96891.00
2023-05-20T14:56:33.303Z,96885.25
2023-05-20T14:59:01.033Z,96896.97
2023-05-20T15:01:28.778Z,96887.53
2023-05-20T15:03:56.489Z,96892.09
2023-05-20T15:06:24.517Z,96895.13
2023-05-20T15:08:53.532Z,96894.63
2023-05-20T15:11:21.164Z,96896.38
2023-05-20T15:13:48.770Z,96900.56
2023-05-20T15:16:16.840Z,96898.31
2023-05-20T15:18:44.696Z,96898.22
2023-05-20T15:21:12.589Z,96894.25
2023-05-20T15:23:40.606Z,96882.66
2023-05-20T15:26:10.023Z,96888.19
2023-05-20T15:28:37.697Z,96891.69
2023-05-20T15:31:05.773Z,96893.84
2023-05-20T15:33:34.368Z,96897.38
2023-05-20T15:36:02.002Z,96893.66
2023-05-20T15:38:29.950Z,96904.03
2023-05-20T15:40:57.618Z,96899.31
2023-05-20T15:43:26.840Z,96899.72
2023-05-20T15:45:54.629Z,96900.56
2023-05-20T15:48:22.342Z,96900.47
2023-05-20T15:50:50.242Z,96904.03
2023-05-20T15:53:17.854Z,96896.06
2023-05-20T15:55:45.596Z,96887.69
2023-05-20T15:58:13.595Z,96887.00
2023-05-20T16:00:42.729Z,96889.38
2023-05-20T16:03:10.431Z,96880.03
2023-05-20T16:05:38.504Z,96881.97
2023-05-20T16:08:06.515Z,96882.66
2023-05-20T16:10:34.742Z,96882.91
2023-05-20T16:13:03.581Z,96895.00
2023-05-20T16:15:31.191Z,96892.09
2023-05-20T16:18:00.628Z,96881.56
2023-05-20T16:20:29.875Z,96884.38
2023-05-20T16:22:57.683Z,96878.97
2023-05-20T16:25:25.844Z,96890.00
2023-05-20T16:27:53.627Z,96898.25
2023-05-20T16:30:25.688Z,96907.59
2023-05-20T16:32:53.338Z,96908.03
2023-05-20T16:35:23.528Z,96908.66
2023-05-20T16:37:53.661Z,96911.94
2023-05-20T16:40:21.561Z,96908.78
2023-05-20T16:42:49.279Z,96907.88
2023-05-20T16:45:17.628Z,96899.94
2023-05-20T16:47:45.624Z,96894.34
2023-05-20T16:50:13.344Z,96891.97
2023-05-20T16:52:43.856Z,96897.41
2023-05-20T16:55:11.600Z,96891.69
2023-05-20T16:57:39.248Z,96899.41
2023-05-20T17:00:08.271Z,96897.84
2023-05-20T17:02:35.928Z,96888.19
2023-05-20T17:05:03.784Z,96896.66
2023-05-20T17:07:31.687Z,96902.38
2023-05-20T17:10:01.252Z,96883.75
2023-05-20T17:12:29.041Z,96890.72
2023-05-20T17:14:56.667Z,96892.19
2023-05-20T17:17:24.285Z,96892.44
2023-05-20T17:19:51.914Z,96890.75
2023-05-20T17:22:19.636Z,96889.97
2023-05-20T17:24:47.431Z,96891.00
2023-05-20T17:27:16.482Z,96885.25
2023-05-20T17:29:44.423Z,96889.22
2023-05-20T17:32:12.040Z,96888.72
2023-05-20T17:34:39.845Z,96884.13
2023-05-20T17:37:07.509Z,96881.97
2023-05-20T17:39:35.212Z,96880.72
2023-05-20T17:42:02.934Z,96889.50
2023-05-20T17:44:31.906Z,96897.69
2023-05-20T17:46:59.564Z,96885.34
2023-05-20T17:49:27.233Z,96899.34
2023-05-20T17:51:54.874Z,96909.47
2023-05-20T17:54:22.721Z,96905.19
2023-05-20T17:56:50.316Z,96909.41
2023-05-20T17:59:18.049Z,96901.66
2023-05-20T18:01:47.047Z,96900.75
2023-05-20T18:04:14.966Z,96894.97
2023-05-20T18:06:43.027Z,96887.13
2023-05-20T18:09:12.774Z,96896.06
2023-05-20T18:11:40.499Z,96895.75
2023-05-20T18:14:08.161Z,96897.00
2023-05-20T18:16:35.998Z,96901.38
2023-05-20T18:19:05.492Z,96900.75
2023-05-20T18:21:34.192Z,96915.50
2023-05-20T18:24:09.370Z,96913.88
2023-05-20T18:26:37.329Z,96912.66
2023-05-20T18:29:05.018Z,96911.81
2023-05-20T18:31:35.006Z,96923.75
2023-05-20T18:34:02.728Z,96925.84
2023-05-20T18:36:31.993Z,96931.66
2023-05-20T18:38:59.603Z,96931.13
2023-05-20T18:41:35.705Z,96936.81
2023-05-20T18:44:14.452Z,96937.19
2023-05-20T18:46:42.560Z,96935.84
2023-05-20T18:49:10.886Z,96930.44
2023-05-20T18:51:42.139Z,96928.66
2023-05-20T18:54:11.719Z,96922.16
2023-05-20T18:56:39.304Z,96928.13
2023-05-20T18:59:08.315Z,96925.69
2023-05-20T19:01:35.949Z,96924.56
2023-05-20T19:04:03.819Z,96917.47
2023-05-20T19:06:31.716Z,96913.47
2023-05-20T19:09:00.691Z,96916.53
2023-05-20T19:11:28.657Z,96917.56
2023-05-20T19:13:56.420Z,96918.78
2023-05-20T19:16:24.514Z,96921.09
2023-05-20T19:18:52.310Z,96919.28
2023-05-20T19:21:19.964Z,96926.75
2023-05-20T19:23:47.582Z,96925.34
2023-05-20T19:26:18.573Z,96922.34
2023-05-20T19:28:46.549Z,96921.56
2023-05-20T19:31:15.348Z,96927.66
2023-05-20T19:33:43.024Z,96923.63
2023-05-20T19:36:11.246Z,96928.25
2023-05-20T19:38:39.078Z,96925.66
2023-05-20T19:41:07.175Z,96925.41
2023-05-20T19:43:36.198Z,96919.78
2023-05-20T19:46:04.017Z,96924.16
2023-05-20T19:48:31.720Z,96919.09
2023-05-20T19:50:59.319Z,96921.75
2023-05-20T19:53:28.229Z,96928.56
2023-05-20T19:55:57.445Z,96933.50
2023-05-20T19:58:25.274Z,96939.50
2023-05-20T20:00:54.264Z,96936.50
2023-05-20T20:03:21.868Z,96941.47
2023-05-20T20:05:49.559Z,96943.88
2023-05-20T20:08:17.652Z,96949.00
2023-05-20T20:10:45.440Z,96951.41
2023-05-20T20:13:13.061Z,96948.63
2023-05-20T20:15:40.721Z,96941.03
2023-05-20T20:18:09.831Z,96945.69
2023-05-20T20:20:37.597Z,96941.38
2023-05-20T20:23:06.229Z,96945.94
2023-05-20T20:25:34.551Z,96937.06
2023-05-20T20:28:02.521Z,96953.44
2023-05-20T20:30:30.234Z,96956.03
2023-05-20T20:32:58.144Z,96950.13
2023-05-20T20:35:27.242Z,96947.91
2023-05-20T20:37:54.837Z,96939.41
2023-05-20T20:40:23.333Z,96947.44
2023-05-20T20:42:51.666Z,96948.19
2023-05-20T20:45:19.308Z,96941.50
2023-05-20T20:47:47.012Z,96934.06
2023-05-20T20:50:14.809Z,96927.84
2023-05-20T20:52:43.808Z,96923.00
2023-05-20T20:55:11.758Z,96918.31
2023-05-20T20:57:39.564Z,96924.47
2023-05-20T21:00:08.373Z,96917.94
2023-05-20T21:02:37.509Z,96921.97
2023-05-20T21:05:06.149Z,96926.69
2023-05-20T21:07:34.164Z,96929.94
2023-05-20T21:10:03.864Z,96931.78
2023-05-20T21:12:31.745Z,96926.13
2023-05-20T21:14:59.604Z,96924.28
2023-05-20T21:17:27.730Z,96925.34
2023-05-20T21:19:55.371Z,96918.78
2023-05-20T21:22:23.018Z,96921.19
2023-05-20T21:24:50.868Z,96925.50
2023-05-20T21:27:21.237Z,96916.84
2023-05-20T21:29:48.861Z,96911.94
2023-05-20T21:32:16.492Z,96913.22
2023-05-20T21:34:44.264Z,96908.03
2023-05-20T21:37:11.945Z,96907.09
2023-05-20T21:39:39.659Z,96900.34
2023-05-20T21:42:07.678Z,96900.53
2023-05-20T21:44:36.946Z,96903.41
2023-05-20T21:47:05.213Z,96909.06
2023-05-20T21:49:34.713Z,96902.03
2023-05-20T21:52:03.967Z,96893.19
2023-05-20T21:54:31.882Z,96890.66
2023-05-20T21:56:59.561Z,96889.56
2023-05-20T21:59:27.376Z,96892.25
2023-05-20T22:01:56.489Z,96890.03
2023-05-20T22:04:24.234Z,96893.66
2023-05-20T22:06:51.909Z,96896.22
2023-05-20T22:09:20.932Z,96902.34
2023-05-20T22:11:48.564Z,96898.19
2023-05-20T22:14:16.350Z,96889.09
2023-05-20T22:16:45.024Z,96880.31
2023-05-20T22:19:14.793Z,96892.38
2023-05-20T22:21:50.163Z,96888.00
2023-05-20T22:24:18.711Z,96885.19
2023-05-20T22:26:46.539Z,96880.31
2023-05-20T22:29:14.220Z,96880.94
2023-05-20T22:31:41.950Z,96892.03
2023-05-20T22:34:09.557Z,96876.72
2023-05-20T22:36:38.675Z,96872.44
2023-05-20T22:39:06.368Z,96865.13
2023-05-20T22:41:34.067Z,96874.09
2023-05-20T22:44:01.814Z,96871.00
2023-05-20T22:46:29.523Z,96877.63
2023-05-20T22:48:57.256Z,96882.97
2023-05-20T22:51:24.914Z,96880.06
2023-05-20T22:53:54.972Z,96872.31
2023-05-20T22:56:22.602Z,96874.84
2023-05-20T22:58:50.356Z,96872.78
2023-05-20T23:01:20.273Z,96862.25
2023-05-20T23:03:48.049Z,96861.28
2023-05-20T23:06:15.681Z,96861.50
2023-05-20T23:08:43.345Z,96864.34
2023-05-20T23:11:12.439Z,96855.09
2023-05-20T23:13:40.259Z,96869.13
2023-05-20T23:16:08.958Z,96864.97
2023-05-20T23:18:36.709Z,96857.34
2023-05-20T23:21:04.662Z,96870.22
2023-05-20T23:23:32.481Z,96873.94
2023-05-20T23:26:00.455Z,96876.06
2023-05-20T23:28:29.418Z,96870.31
2023-05-20T23:30:56.981Z,96873.97
2023-05-20T23:33:25.696Z,96876.66
2023-05-20T23:35:53.633Z,96871.44
2023-05-20T23:38:21.617Z,96864.16
2023-05-20T23:40:50.174Z,96864.50
2023-05-20T23:43:17.740Z,96864.94
2023-05-20T23:45:46.796Z,96867.84
2023-05-20T23:48:14.409Z,96863.47
2023-05-20T23:50:42.113Z,96859.03
2023-05-20T23:53:09.739Z,96869.63
2023-05-20T23:55:37.474Z,96872.31
2023-05-20T23:58:05.504Z,96871.53
